Time;durP1;ratioP1;P1;durP2;ratioP2;P2;SDS_P1;SDS_P2;PMS_P1;PMS_P2;Temp;Humidity;BMP_temperature;BMP_pressure;BME280_temperature;BME280_humidity;BME280_pressure;Samples;Min_cycle;Max_cycle;Signal;HPM_P1;HPM_P2
2024/04/01 00:01:04;;;;;;;33.75;8.35;;;;;;;-141.50;100.00;63355.56;4919476;29;20548;-85
2024/04/01 00:03:30;;;;;;;43.45;8.55;;;;;;;-141.50;100.00;63355.56;4920410;29;20055;-84
2024/04/01 00:05:58;;;;;;;44.25;8.75;;;;;;;-141.50;100.00;63355.56;4917944;29;20114;-84
2024/04/01 00:08:25;;;;;;;37.50;9.10;;;;;;;-141.50;100.00;63355.56;4919759;29;20111;-85
2024/04/01 00:10:52;;;;;;;39.97;9.05;;;;;;;-141.50;100.00;63355.56;4918370;29;20504;-85
2024/04/01 00:13:19;;;;;;;42.45;8.88;;;;;;;-141.50;100.00;63355.56;4918484;29;20075;-85
2024/04/01 00:15:45;;;;;;;41.20;9.40;;;;;;;-141.50;100.00;63355.56;4915880;29;20052;-85
2024/04/01 00:18:12;;;;;;;36.13;9.55;;;;;;;-141.50;100.00;63355.56;4913827;29;20086;-84
2024/04/01 00:20:38;;;;;;;37.63;8.10;;;;;;;-141.50;100.00;63355.56;4917246;29;20518;-83
2024/04/01 00:23:05;;;;;;;42.05;9.02;;;;;;;-141.50;100.00;63355.56;4913747;29;20044;-82
2024/04/01 00:25:32;;;;;;;44.40;8.85;;;;;;;-141.50;100.00;63355.56;4931073;29;20051;-83
2024/04/01 00:27:58;;;;;;;39.40;8.57;;;;;;;-141.50;100.00;63355.56;4908401;29;20044;-82
2024/04/01 00:30:24;;;;;;;46.90;9.55;;;;;;;-141.50;100.00;63355.56;4916039;29;20074;-82
2024/04/01 00:32:50;;;;;;;45.70;8.93;;;;;;;-141.50;100.00;63355.56;4909817;29;20059;-81
2024/04/01 00:35:17;;;;;;;33.58;9.02;;;;;;;-141.50;100.00;63355.56;4908142;29;20142;-83
2024/04/01 00:37:44;;;;;;;40.25;8.77;;;;;;;-141.50;100.00;63355.56;4914013;29;20143;-84
2024/04/01 00:40:10;;;;;;;32.08;8.50;;;;;;;-141.50;100.00;63355.56;4920870;29;20511;-83
2024/04/01 00:42:36;;;;;;;41.63;9.05;;;;;;;-141.50;100.00;63355.56;4922705;29;20072;-82
2024/04/01 00:45:02;;;;;;;42.20;8.45;;;;;;;-141.50;100.00;63355.56;4920295;29;20047;-83
2024/04/01 00:47:30;;;;;;;38.80;8.65;;;;;;;-141.50;100.00;63355.56;4922557;29;20131;-83
2024/04/01 00:49:56;;;;;;;40.95;8.13;;;;;;;-141.50;100.00;63355.56;4918241;29;20086;-83
2024/04/01 00:52:28;;;;;;;49.85;10.05;;;;;;;-141.50;100.00;63355.56;4924707;29;20161;-83
2024/04/01 00:54:57;;;;;;;41.58;9.02;;;;;;;-141.50;100.00;63355.56;4913151;29;20062;-82
2024/04/01 00:57:23;;;;;;;37.83;7.82;;;;;;;-141.50;100.00;63355.56;4914981;29;20113;-84
2024/04/01 00:59:52;;;;;;;43.55;8.57;;;;;;;-141.50;100.00;63355.56;4917999;29;20504;-84
2024/04/01 01:02:20;;;;;;;39.28;9.27;;;;;;;-141.50;100.00;63355.56;4916485;29;20261;-83
2024/04/01 01:04:48;;;;;;;37.47;7.90;;;;;;;-141.50;100.00;63355.56;4918442;29;20059;-83
2024/04/01 01:07:14;;;;;;;41.55;9.00;;;;;;;-141.50;100.00;63355.56;4924620;29;20075;-82
2024/04/01 01:09:41;;;;;;;39.78;8.55;;;;;;;-141.50;100.00;63355.56;4919186;29;20067;-82
2024/04/01 01:12:07;;;;;;;46.03;9.55;;;;;;;-141.50;100.00;63355.56;4911612;28;20544;-83
2024/04/01 01:14:33;;;;;;;42.80;8.73;;;;;;;-141.50;100.00;63355.56;4922400;29;20056;-83
2024/04/01 01:17:36;;;;;;;35.63;8.60;;;;;;;-141.50;100.00;63355.56;4903894;29;20090;-84
2024/04/01 01:20:12;;;;;;;51.42;9.40;;;;;;;-141.50;100.00;63355.56;4915749;29;20044;-81
2024/04/01 01:22:39;;;;;;;44.67;10.23;;;;;;;-141.50;100.00;63355.56;4919591;29;20138;-82
2024/04/01 01:25:26;;;;;;;44.25;9.85;;;;;;;-141.50;100.00;63355.56;4917138;29;20043;-81
2024/04/01 01:27:52;;;;;;;41.97;9.48;;;;;;;-141.50;100.00;63355.56;4920794;29;21608;-80
2024/04/01 01:30:18;;;;;;;40.78;8.35;;;;;;;-141.50;100.00;63355.56;4905552;29;20059;-82
2024/04/01 01:33:06;;;;;;;30.25;8.05;;;;;;;-141.50;100.00;63355.56;4909424;29;20055;-83
2024/04/01 01:35:37;;;;;;;39.33;9.52;;;;;;;-141.50;100.00;63355.56;4922130;28;20074;-82
2024/04/01 01:38:04;;;;;;;39.55;8.50;;;;;;;-141.50;100.00;63355.56;4923987;29;20055;-82
2024/04/01 01:40:30;;;;;;;32.35;9.00;;;;;;;-141.50;100.00;63355.56;4926234;29;20048;-82
2024/04/01 01:43:02;;;;;;;40.97;9.23;;;;;;;-141.50;100.00;63355.56;4913657;28;20047;-82
2024/04/01 01:45:28;;;;;;;35.47;8.70;;;;;;;-141.50;100.00;63355.56;4910853;29;20078;-83
2024/04/01 01:47:55;;;;;;;41.83;8.55;;;;;;;-141.50;100.00;63355.56;4914446;29;20051;-84
2024/04/01 01:50:20;;;;;;;41.50;7.80;;;;;;;-141.50;100.00;63355.56;4934046;29;20047;-85
2024/04/01 01:52:46;;;;;;;37.00;7.80;;;;;;;-141.50;100.00;63355.56;4924942;29;20068;-85
2024/04/01 01:55:12;;;;;;;32.63;7.47;;;;;;;-141.50;100.00;63355.56;4917598;29;20520;-83
2024/04/01 01:57:38;;;;;;;35.28;7.88;;;;;;;-141.50;100.00;63355.56;4931086;29;20461;-83
2024/04/01 02:00:05;;;;;;;41.95;8.30;;;;;;;-141.50;100.00;63355.56;4916727;29;20048;-85
2024/04/01 02:02:32;;;;;;;38.83;7.43;;;;;;;-141.50;100.00;63355.56;4917805;29;20040;-84
2024/04/01 02:04:59;;;;;;;30.85;6.80;;;;;;;-141.50;100.00;63355.56;4918485;29;20126;-84
2024/04/01 02:07:25;;;;;;;30.45;6.90;;;;;;;-141.50;100.00;63355.56;4926582;29;20071;-83
2024/04/01 02:09:51;;;;;;;38.47;6.10;;;;;;;-141.50;100.00;63355.56;4919631;29;20146;-83
2024/04/01 02:12:17;;;;;;;41.72;7.30;;;;;;;-141.50;100.00;63355.56;4926441;28;20051;-82
2024/04/01 02:14:46;;;;;;;28.38;6.75;;;;;;;-141.50;100.00;63355.56;4919542;29;20056;-84
2024/04/01 02:17:12;;;;;;;34.72;6.55;;;;;;;-141.50;100.00;63355.56;4907466;29;20119;-83
2024/04/01 02:19:45;;;;;;;32.83;6.82;;;;;;;-141.50;100.00;63355.56;4915177;29;20059;-84
2024/04/01 02:22:14;;;;;;;35.33;6.32;;;;;;;-141.50;100.00;63355.56;4914836;29;20636;-84
2024/04/01 02:24:43;;;;;;;30.27;6.25;;;;;;;-141.50;100.00;63355.56;4918826;29;20082;-83
2024/04/01 02:27:11;;;;;;;27.98;5.85;;;;;;;-141.50;100.00;63355.56;4919895;29;20199;-83
2024/04/01 02:29:37;;;;;;;33.83;7.30;;;;;;;-141.50;100.00;63355.56;4919038;29;20138;-84
2024/04/01 02:32:04;;;;;;;31.80;6.53;;;;;;;-141.50;100.00;63355.56;4914103;29;20054;-85
2024/04/01 02:34:30;;;;;;;31.88;6.38;;;;;;;-141.50;100.00;63355.56;4919123;29;20177;-85
2024/04/01 02:36:56;;;;;;;40.22;6.60;;;;;;;-141.50;100.00;63355.56;4917574;29;20056;-84
2024/04/01 02:39:23;;;;;;;34.30;7.70;;;;;;;-141.50;100.00;63355.56;4919575;29;20047;-84
2024/04/01 02:41:50;;;;;;;35.85;5.50;;;;;;;-141.50;100.00;63355.56;4910004;29;20147;-83
2024/04/01 02:44:17;;;;;;;36.65;5.70;;;;;;;-141.50;100.00;63355.56;4919578;29;20052;-83
2024/04/01 02:46:43;;;;;;;39.53;5.65;;;;;;;-141.50;100.00;63355.56;4917849;29;20060;-85
2024/04/01 02:49:10;;;;;;;28.90;5.22;;;;;;;-141.50;100.00;63355.56;4908976;29;20523;-86
2024/04/01 02:51:37;;;;;;;31.98;5.38;;;;;;;-141.50;100.00;63355.56;4903536;29;20048;-84
2024/04/01 02:54:03;;;;;;;41.20;5.40;;;;;;;-141.50;100.00;63355.56;4919808;29;20048;-84
2024/04/01 02:56:29;;;;;;;36.75;5.55;;;;;;;-141.50;100.00;63355.56;4912187;29;20054;-85
2024/04/01 02:58:56;;;;;;;39.15;5.30;;;;;;;-141.50;100.00;63355.56;4937273;29;20143;-84
2024/04/01 03:01:21;;;;;;;38.85;5.72;;;;;;;-141.50;100.00;63355.56;4921037;29;20138;-84
2024/04/01 03:03:50;;;;;;;36.00;5.63;;;;;;;-141.50;100.00;63355.56;4916791;29;20131;-84
2024/04/01 03:06:16;;;;;;;36.10;6.25;;;;;;;-141.50;100.00;63355.56;4920523;29;20099;-84
2024/04/01 03:08:42;;;;;;;35.95;5.53;;;;;;;-141.50;100.00;63355.56;4919256;29;20094;-85
2024/04/01 03:11:09;;;;;;;37.38;4.78;;;;;;;-141.50;100.00;63355.56;4917672;29;20059;-84
2024/04/01 03:13:36;;;;;;;33.55;4.93;;;;;;;-141.50;100.00;63355.56;4907275;29;20098;-83
2024/04/01 03:16:05;;;;;;;32.63;6.00;;;;;;;-141.50;100.00;63355.56;4903456;29;20139;-84
2024/04/01 03:18:32;;;;;;;29.73;4.72;;;;;;;-141.50;100.00;63355.56;4933013;28;20042;-85
2024/04/01 03:20:58;;;;;;;36.20;5.30;;;;;;;-141.50;100.00;63355.56;4903853;29;20067;-86
2024/04/01 03:23:24;;;;;;;39.10;5.07;;;;;;;-141.50;100.00;63355.56;4925579;29;20043;-85
2024/04/01 03:25:51;;;;;;;30.50;5.45;;;;;;;-141.50;100.00;63355.56;4919077;29;20051;-84
2024/04/01 03:28:20;;;;;;;29.45;4.45;;;;;;;-141.50;100.00;63355.56;4915643;29;20072;-84
2024/04/01 03:30:46;;;;;;;32.40;5.28;;;;;;;-141.50;100.00;63355.56;4919261;29;20079;-84
2024/04/01 03:33:13;;;;;;;36.60;4.68;;;;;;;-141.50;100.00;63355.56;4924484;28;20142;-82
2024/04/01 03:35:40;;;;;;;26.35;4.90;;;;;;;-141.50;100.00;63355.56;4918657;29;20151;-84
2024/04/01 03:38:06;;;;;;;37.83;4.65;;;;;;;-141.50;100.00;63355.56;4918470;29;20591;-83
2024/04/01 03:40:36;;;;;;;41.83;4.57;;;;;;;-141.50;100.00;63355.56;4913157;29;20070;-82
2024/04/01 03:43:03;;;;;;;40.00;5.18;;;;;;;-141.50;100.00;63355.56;4917421;29;20056;-82
2024/04/01 03:45:29;;;;;;;39.42;5.80;;;;;;;-141.50;100.00;63355.56;4920524;29;20408;-83
2024/04/01 03:47:55;;;;;;;42.03;4.70;;;;;;;-141.50;100.00;63355.56;4918498;29;20353;-82
2024/04/01 03:50:21;;;;;;;29.90;4.55;;;;;;;-141.50;100.00;63355.56;4928499;29;20073;-81
2024/04/01 03:52:47;;;;;;;42.25;5.15;;;;;;;-141.50;100.00;63355.56;4917476;29;20067;-82
2024/04/01 03:55:13;;;;;;;31.40;4.00;;;;;;;-141.50;100.00;63355.56;4914415;29;20083;-83
2024/04/01 03:57:38;;;;;;;38.45;5.00;;;;;;;-141.50;100.00;63355.56;4920722;29;20075;-85
2024/04/01 04:00:06;;;;;;;36.65;5.30;;;;;;;-141.50;100.00;63355.56;4925617;29;20092;-85
2024/04/01 04:02:32;;;;;;;30.08;4.22;;;;;;;-141.50;100.00;63355.56;4921323;29;20374;-83
2024/04/01 04:04:58;;;;;;;35.88;5.22;;;;;;;-141.50;100.00;63355.56;4896019;29;20059;-84
2024/04/01 04:07:24;;;;;;;40.38;5.15;;;;;;;-141.50;100.00;63355.56;4918657;29;20044;-86
2024/04/01 04:09:51;;;;;;;35.88;4.35;;;;;;;-141.50;100.00;63355.56;4917082;29;20070;-85
2024/04/01 04:12:17;;;;;;;40.38;5.15;;;;;;;-141.50;100.00;63355.56;4914813;29;20115;-84
2024/04/01 04:14:43;;;;;;;36.85;4.90;;;;;;;-141.50;100.00;63355.56;4919111;29;20134;-83
2024/04/01 04:17:09;;;;;;;33.35;4.93;;;;;;;-141.50;100.00;63355.56;4918970;29;20052;-84
2024/04/01 04:19:35;;;;;;;39.47;4.93;;;;;;;-141.50;100.00;63355.56;4920409;29;20476;-84
2024/04/01 04:22:01;;;;;;;34.28;4.70;;;;;;;-141.50;100.00;63355.56;4918677;29;20455;-84
2024/04/01 04:24:27;;;;;;;31.23;4.10;;;;;;;-141.50;100.00;63355.56;4920089;29;20071;-84
2024/04/01 04:26:53;;;;;;;32.38;4.00;;;;;;;-141.50;100.00;63355.56;4919805;29;20598;-85
2024/04/01 04:29:19;;;;;;;32.42;4.82;;;;;;;-141.50;100.00;63355.56;4919224;29;20031;-85
2024/04/01 04:31:55;;;;;;;28.85;4.03;;;;;;;-141.50;100.00;63355.56;4917930;29;20075;-85
2024/04/01 04:34:23;;;;;;;;;;;;;;;-141.50;100.00;63355.56;4912303;29;20071;-85
2024/04/01 04:36:50;;;;;;;22.10;4.38;;;;;;;-141.50;100.00;63355.56;4926947;28;20029;-84
2024/04/01 04:39:24;;;;;;;26.23;3.60;;;;;;;-141.50;100.00;63355.56;4917008;28;20485;-85
2024/04/01 04:41:51;;;;;;;29.00;4.50;;;;;;;-141.50;100.00;63355.56;4921400;29;20047;-84
2024/04/01 04:44:17;;;;;;;33.70;4.28;;;;;;;-141.50;100.00;63355.56;4918746;29;20272;-84
2024/04/01 04:46:43;;;;;;;30.13;2.90;;;;;;;-141.50;100.00;63355.56;4928261;29;20035;-85
2024/04/01 04:49:09;;;;;;;23.98;3.60;;;;;;;-141.50;100.00;63355.56;4918289;29;20055;-84
2024/04/01 04:51:35;;;;;;;36.38;3.88;;;;;;;-141.50;100.00;63355.56;4917476;29;20132;-83
2024/04/01 04:54:01;;;;;;;29.73;3.53;;;;;;;-141.50;100.00;63355.56;4917637;28;20108;-86
2024/04/01 04:56:27;;;;;;;36.97;3.92;;;;;;;-141.50;100.00;63355.56;4920750;29;20344;-85
2024/04/01 04:58:53;;;;;;;30.23;4.00;;;;;;;-141.50;100.00;63355.56;4933797;28;20051;-85
2024/04/01 05:01:23;;;;;;;36.30;3.78;;;;;;;-141.50;100.00;63355.56;4911856;29;20090;-84
2024/04/01 05:03:49;;;;;;;29.08;3.13;;;;;;;-141.50;100.00;63355.56;4917722;29;20064;-83
2024/04/01 05:06:15;;;;;;;24.33;3.33;;;;;;;-141.50;100.00;63355.56;4919055;29;20052;-84
2024/04/01 05:08:41;;;;;;;30.98;3.50;;;;;;;-141.50;100.00;63355.56;4919625;29;20645;-83
2024/04/01 05:11:07;;;;;;;20.48;3.80;;;;;;;-141.50;100.00;63355.56;4915166;29;20071;-83
2024/04/01 05:13:36;;;;;;;31.77;3.72;;;;;;;-141.50;100.00;63355.56;4928279;29;20040;-83
2024/04/01 05:16:05;;;;;;;38.88;3.60;;;;;;;-141.50;100.00;63355.56;4940789;28;20508;-83
2024/04/01 05:18:34;;;;;;;35.25;4.30;;;;;;;-141.50;100.00;63355.56;4919838;29;20155;-85
2024/04/01 05:21:01;;;;;;;29.15;3.80;;;;;;;-141.50;100.00;63355.56;4910599;29;20134;-84
2024/04/01 05:23:28;;;;;;;20.73;3.28;;;;;;;-141.50;100.00;63355.56;4933817;29;20047;-84
2024/04/01 05:25:54;;;;;;;22.00;3.47;;;;;;;-141.50;100.00;63355.56;4917010;29;20043;-81
2024/04/01 05:28:21;;;;;;;22.63;3.08;;;;;;;-141.50;100.00;63355.56;4918761;29;20130;-83
2024/04/01 05:30:52;;;;;;;29.63;3.10;;;;;;;-141.50;100.00;63355.56;4918530;29;20058;-84
2024/04/01 05:33:21;;;;;;;18.88;2.72;;;;;;;-141.50;100.00;63355.56;4925634;29;20310;-84
2024/04/01 05:35:48;;;;;;;21.85;3.03;;;;;;;-141.50;100.00;63355.56;4916592;29;20068;-83
2024/04/01 05:38:17;;;;;;;24.15;3.03;;;;;;;-141.50;100.00;63355.56;4915999;29;20064;-83
2024/04/01 05:40:43;;;;;;;19.30;4.32;;;;;;;-141.50;100.00;63355.56;4917450;29;20750;-84
2024/04/01 05:43:09;;;;;;;21.90;3.35;;;;;;;-141.50;100.00;63355.56;4911956;29;20058;-82
2024/04/01 05:45:35;;;;;;;22.02;2.70;;;;;;;-141.50;100.00;63355.56;4927813;29;20075;-83
2024/04/01 05:48:02;;;;;;;20.92;3.10;;;;;;;-141.50;100.00;63355.56;4912023;29;20044;-84
2024/04/01 05:50:28;;;;;;;26.55;3.33;;;;;;;-141.50;100.00;63355.56;4925736;29;20091;-84
2024/04/01 05:52:54;;;;;;;21.10;2.90;;;;;;;-141.50;100.00;63355.56;4917222;29;20452;-84
2024/04/01 05:55:20;;;;;;;19.25;3.05;;;;;;;-141.50;100.00;63355.56;4892507;29;20584;-86
2024/04/01 05:57:47;;;;;;;30.20;2.75;;;;;;;-141.50;100.00;63355.56;4909954;29;20084;-85
2024/04/01 06:00:12;;;;;;;26.63;3.15;;;;;;;-141.50;100.00;63355.56;4913337;29;20075;-83
2024/04/01 06:02:38;;;;;;;21.10;2.83;;;;;;;-141.50;100.00;63355.56;4909460;29;20461;-80
2024/04/01 06:05:05;;;;;;;18.90;2.85;;;;;;;-141.50;100.00;63355.56;4918472;29;20082;-79
2024/04/01 06:07:31;;;;;;;18.27;3.25;;;;;;;-141.50;100.00;63355.56;4909170;29;20084;-80
2024/04/01 06:10:00;;;;;;;17.63;2.92;;;;;;;-141.50;100.00;63355.56;4925792;29;20067;-81
2024/04/01 06:12:27;;;;;;;22.10;3.05;;;;;;;-141.50;100.00;63355.56;4909610;29;20055;-86
2024/04/01 06:14:53;;;;;;;20.58;2.78;;;;;;;-141.50;100.00;63355.56;4900868;29;20056;-85
2024/04/01 06:17:20;;;;;;;21.23;2.97;;;;;;;-141.50;100.00;63355.56;4915756;29;20063;-85
2024/04/01 06:19:45;;;;;;;20.85;2.67;;;;;;;-141.50;100.00;63355.56;4894108;29;20063;-84
2024/04/01 06:22:11;;;;;;;25.85;3.25;;;;;;;-141.50;100.00;63355.56;4912012;28;20094;-86
2024/04/01 06:24:38;;;;;;;19.45;3.00;;;;;;;-141.50;100.00;63355.56;4905306;29;20356;-84
2024/04/01 06:27:05;;;;;;;25.52;3.03;;;;;;;-141.50;100.00;63355.56;4905039;29;20666;-85
2024/04/01 06:29:33;;;;;;;23.92;2.85;;;;;;;-141.50;100.00;63355.56;4911514;29;20064;-83
2024/04/01 06:31:59;;;;;;;18.30;3.50;;;;;;;-141.50;100.00;63355.56;4911239;29;20611;-84
2024/04/01 06:34:25;;;;;;;22.02;2.75;;;;;;;-141.50;100.00;63355.56;4915521;29;20060;-84
2024/04/01 06:36:50;;;;;;;24.88;3.20;;;;;;;-141.50;100.00;63355.56;4933329;29;20071;-85
2024/04/01 06:39:17;;;;;;;13.60;2.85;;;;;;;-141.50;100.00;63355.56;4914237;29;20051;-84
2024/04/01 06:41:46;;;;;;;23.00;3.00;;;;;;;-141.50;100.00;63355.56;4899084;29;20064;-84
2024/04/01 06:44:12;;;;;;;28.35;2.80;;;;;;;-141.50;100.00;63355.56;4913896;29;20066;-84
2024/04/01 06:46:38;;;;;;;25.27;3.70;;;;;;;-141.50;100.00;63355.56;4916941;29;20148;-83
2024/04/01 06:49:04;;;;;;;22.00;2.67;;;;;;;-141.50;100.00;63355.56;4917811;29;20072;-85
2024/04/01 06:51:31;;;;;;;18.42;2.78;;;;;;;-141.50;100.00;63355.56;4915372;29;20060;-83
2024/04/01 06:53:57;;;;;;;21.75;3.15;;;;;;;-141.50;100.00;63355.56;4914575;29;20119;-84
2024/04/01 06:56:23;;;;;;;25.45;2.80;;;;;;;-141.50;100.00;63355.56;4915823;29;20052;-87
2024/04/01 06:58:49;;;;;;;26.88;3.78;;;;;;;-141.50;100.00;63355.56;4913108;29;20071;-86
2024/04/01 07:01:15;;;;;;;13.63;3.22;;;;;;;-141.50;100.00;63355.56;4913479;29;20048;-85
2024/04/01 07:03:41;;;;;;;15.57;3.33;;;;;;;-141.50;100.00;63355.56;4912494;29;20129;-84
2024/04/01 07:06:08;;;;;;;19.95;3.08;;;;;;;-141.50;100.00;63355.56;4911852;29;20131;-84
2024/04/01 07:08:34;;;;;;;14.35;2.47;;;;;;;-141.50;100.00;63355.56;4888338;29;20453;-84
2024/04/01 07:11:00;;;;;;;29.65;3.70;;;;;;;-141.50;100.00;63355.56;4910154;29;20064;-84
2024/04/01 07:13:25;;;;;;;27.98;4.07;;;;;;;-141.50;100.00;63355.56;4882311;29;20063;-85
2024/04/01 07:15:51;;;;;;;16.20;2.78;;;;;;;-141.50;100.00;63355.56;4910177;29;20424;-85
2024/04/01 07:18:17;;;;;;;19.15;2.83;;;;;;;-141.50;100.00;63355.56;4894866;29;20052;-86
2024/04/01 07:20:43;;;;;;;28.60;3.35;;;;;;;-141.50;100.00;63355.56;4914019;29;20056;-86
2024/04/01 07:23:09;;;;;;;15.48;3.20;;;;;;;-141.50;100.00;63355.56;4913032;29;20076;-84
2024/04/01 07:25:35;;;;;;;17.60;2.58;;;;;;;-141.50;100.00;63355.56;4922961;29;20088;-86
2024/04/01 07:28:01;;;;;;;26.42;3.80;;;;;;;-141.50;100.00;63355.56;4912306;29;20063;-86
2024/04/01 07:30:27;;;;;;;25.25;3.00;;;;;;;-141.50;100.00;63355.56;4927819;29;20055;-85
2024/04/01 07:32:53;;;;;;;26.40;2.88;;;;;;;-141.50;100.00;63355.56;4896243;29;20064;-85
2024/04/01 07:35:19;;;;;;;25.48;3.25;;;;;;;-141.50;100.00;63355.56;4915597;29;20048;-83
2024/04/01 07:37:45;;;;;;;21.35;2.67;;;;;;;-141.50;100.00;63355.56;4911564;29;20063;-85
2024/04/01 07:40:12;;;;;;;22.30;2.80;;;;;;;-141.50;100.00;63355.56;4913518;29;20060;-83
2024/04/01 07:42:42;;;;;;;20.38;3.72;;;;;;;-141.50;100.00;63355.56;4882239;29;20159;-85
2024/04/01 07:45:09;;;;;;;16.83;3.10;;;;;;;-141.50;100.00;63355.56;4909090;28;20056;-85
2024/04/01 07:47:35;;;;;;;22.95;3.10;;;;;;;-141.50;100.00;63355.56;4919064;29;20059;-85
2024/04/01 07:50:01;;;;;;;18.88;2.95;;;;;;;-141.50;100.00;63355.56;4916912;29;20060;-84
2024/04/01 07:52:30;;;;;;;21.83;3.53;;;;;;;-141.50;100.00;63355.56;4911234;29;20107;-85
2024/04/01 07:54:56;;;;;;;20.70;3.00;;;;;;;-141.50;100.00;63355.56;4896131;29;20487;-84
2024/04/01 07:57:28;;;;;;;25.20;2.85;;;;;;;-141.50;100.00;63355.56;4912398;29;20052;-84
2024/04/01 07:59:54;;;;;;;22.00;3.10;;;;;;;-141.50;100.00;63355.56;4902750;29;20060;-85
2024/04/01 08:02:20;;;;;;;14.25;2.85;;;;;;;-141.50;100.00;63355.56;4911081;29;20048;-86
2024/04/01 08:04:46;;;;;;;16.63;2.33;;;;;;;-141.50;100.00;63355.56;4913608;29;20528;-84
2024/04/01 08:07:12;;;;;;;18.45;2.55;;;;;;;-141.50;100.00;63355.56;4916677;29;20519;-84
2024/04/01 08:09:38;;;;;;;23.52;2.67;;;;;;;-141.50;100.00;63355.56;4907468;29;20440;-84
2024/04/01 08:12:04;;;;;;;22.58;2.75;;;;;;;-141.50;100.00;63355.56;4916036;29;20071;-85
2024/04/01 08:14:30;;;;;;;16.52;2.50;;;;;;;-141.50;100.00;63355.56;4919220;29;20591;-84
2024/04/01 08:16:55;;;;;;;18.70;2.42;;;;;;;-141.50;100.00;63355.56;4919213;29;20060;-85
2024/04/01 08:19:21;;;;;;;20.77;2.75;;;;;;;-141.50;100.00;63355.56;4916392;29;20052;-86
2024/04/01 08:21:47;;;;;;;15.95;2.10;;;;;;;-141.50;100.00;63355.56;4914078;29;20239;-84
2024/04/01 08:24:16;;;;;;;15.45;2.90;;;;;;;-141.50;100.00;63355.56;4920852;29;20521;-83
2024/04/01 08:26:44;;;;;;;16.02;3.35;;;;;;;-141.50;100.00;63355.56;4918419;29;20060;-85
2024/04/01 08:29:09;;;;;;;15.07;2.70;;;;;;;-141.50;100.00;63355.56;4914092;29;20593;-85
2024/04/01 08:31:35;;;;;;;12.43;2.05;;;;;;;-141.50;100.00;63355.56;4920303;29;20058;-84
2024/04/01 08:34:02;;;;;;;16.58;2.38;;;;;;;-141.50;100.00;63355.56;4929232;29;20051;-85
2024/04/01 08:36:28;;;;;;;12.45;2.17;;;;;;;-141.50;100.00;63355.56;4915582;29;20048;-85
2024/04/01 08:38:53;;;;;;;12.32;2.08;;;;;;;-141.50;100.00;63355.56;4920090;29;20224;-84
2024/04/01 08:42:04;;;;;;;14.93;2.30;;;;;;;-141.50;100.00;63355.56;4937130;28;20047;-86
2024/04/01 08:44:32;;;;;;;11.77;2.00;;;;;;;-141.50;100.00;63355.56;4872982;29;20190;-84
2024/04/01 08:47:00;;;;;;;20.77;2.65;;;;;;;-141.50;100.00;63355.56;4888936;29;20063;-84
2024/04/01 08:49:34;;;;;;;19.10;2.25;;;;;;;-141.50;100.00;63355.56;4912164;29;20075;-84
2024/04/01 08:52:03;;;;;;;14.23;2.13;;;;;;;-141.50;100.00;63355.56;4911379;29;20366;-85
2024/04/01 08:54:30;;;;;;;13.20;1.67;;;;;;;-141.50;100.00;63355.56;4919758;29;20058;-86
2024/04/01 08:56:56;;;;;;;12.00;1.70;;;;;;;-141.50;100.00;63355.56;4916517;28;20108;-84
2024/04/01 08:59:25;;;;;;;13.90;2.08;;;;;;;-141.50;100.00;63355.56;4913722;29;20103;-85
2024/04/01 09:01:53;;;;;;;13.93;2.80;;;;;;;-141.50;100.00;63355.56;4913527;29;20060;-86
2024/04/01 09:04:19;;;;;;;12.30;1.92;;;;;;;-141.50;100.00;63355.56;4903947;29;20560;-87
2024/04/01 09:06:45;;;;;;;9.10;2.20;;;;;;;-141.50;100.00;63355.56;4906528;29;20111;-89
2024/04/01 09:09:14;;;;;;;15.48;2.10;;;;;;;-141.50;100.00;63355.56;4874122;29;20057;-89
2024/04/01 09:11:44;;;;;;;14.00;2.08;;;;;;;-141.50;100.00;63355.56;4910066;29;20080;-89
2024/04/01 09:14:13;;;;;;;8.40;1.83;;;;;;;-141.50;100.00;63355.56;4907948;29;20059;-88
2024/04/01 09:16:48;;;;;;;10.57;1.77;;;;;;;-141.50;100.00;63355.56;4899924;29;20060;-88
2024/04/01 09:19:16;;;;;;;6.50;1.80;;;;;;;-141.50;100.00;63355.56;4901883;29;20132;-89
2024/04/01 09:21:49;;;;;;;9.63;1.50;;;;;;;-141.50;100.00;63355.56;4892168;29;20131;-89
2024/04/01 09:24:15;;;;;;;6.32;1.15;;;;;;;-141.50;100.00;63355.56;4909228;29;20056;-85
2024/04/01 09:26:43;;;;;;;13.10;2.00;;;;;;;-141.50;100.00;63355.56;4932328;28;20086;-83
2024/04/01 09:29:10;;;;;;;12.20;2.35;;;;;;;-141.50;100.00;63355.56;4922053;29;20130;-85
2024/04/01 09:31:36;;;;;;;12.32;2.13;;;;;;;-141.50;100.00;63355.56;4913067;29;20183;-84
2024/04/01 09:34:02;;;;;;;9.75;1.70;;;;;;;-141.50;100.00;63355.56;4909725;29;20043;-84
2024/04/01 09:36:28;;;;;;;12.60;2.17;;;;;;;-141.50;100.00;63355.56;4909534;29;20078;-87
2024/04/01 09:38:57;;;;;;;10.45;1.92;;;;;;;-141.50;100.00;63355.56;4909829;29;20525;-85
2024/04/01 09:41:25;;;;;;;13.20;2.03;;;;;;;-141.50;100.00;63355.56;4911632;29;20553;-84
2024/04/01 09:43:58;;;;;;;6.32;1.30;;;;;;;-141.50;100.00;63355.56;4903285;29;20091;-85
2024/04/01 09:46:25;;;;;;;12.82;2.38;;;;;;;-141.50;100.00;63355.56;4895177;29;20091;-84
2024/04/01 09:48:53;;;;;;;9.15;1.80;;;;;;;-141.50;100.00;63355.56;4919807;29;20059;-84
2024/04/01 09:51:22;;;;;;;11.27;1.70;;;;;;;-141.50;100.00;63355.56;4899544;29;20053;-84
2024/04/01 09:53:48;;;;;;;8.07;1.60;;;;;;;-141.50;100.00;63355.56;4899239;29;20083;-83
2024/04/01 09:56:37;;;;;;;11.05;1.95;;;;;;;-141.50;100.00;63355.56;4916661;28;20056;-86
2024/04/01 09:59:18;;;;;;;9.73;1.88;;;;;;;-141.50;100.00;63355.56;4919728;29;20075;-86
2024/04/01 10:02:23;;;;;;;9.43;2.95;;;;;;;-141.50;100.00;63355.56;4905052;29;20063;-85
2024/04/01 10:05:11;;;;;;;13.57;3.83;;;;;;;-141.50;100.00;63355.56;4928500;29;20070;-85
2024/04/01 10:07:58;;;;;;;15.48;2.95;;;;;;;-141.50;100.00;63355.56;4898182;29;20060;-85
2024/04/01 10:10:54;;;;;;;13.90;2.50;;;;;;;-141.50;100.00;63355.56;4884632;29;20063;-84
2024/04/01 10:13:54;;;;;;;14.85;3.45;;;;;;;-141.50;100.00;63355.56;4925174;28;20067;-84
2024/04/01 10:16:38;;;;;;;12.55;2.42;;;;;;;-141.50;100.00;63355.56;4898117;29;20044;-87
2024/04/01 10:19:27;;;;;;;11.75;2.28;;;;;;;-141.50;100.00;63355.56;4896542;28;20056;-84
2024/04/01 10:22:19;;;;;;;13.63;3.10;;;;;;;-141.50;100.00;63355.56;4925767;29;20067;-85
2024/04/01 10:25:19;;;;;;;12.35;2.67;;;;;;;-141.50;100.00;63355.56;4912322;29;20095;-82
2024/04/01 10:28:08;;;;;;;6.55;1.70;;;;;;;-141.50;100.00;63355.56;4926392;28;20074;-85
2024/04/01 10:30:59;;;;;;;5.38;1.45;;;;;;;-141.50;100.00;63355.56;4924883;29;20055;-84
2024/04/01 10:34:04;;;;;;;4.05;0.90;;;;;;;-141.50;100.00;63355.56;4945405;28;20094;-84
2024/04/01 10:37:07;;;;;;;4.68;0.88;;;;;;;-141.50;100.00;63355.56;4902834;29;20066;-85
2024/04/01 10:40:16;;;;;;;10.13;1.58;;;;;;;-141.50;100.00;63355.56;4923311;29;20083;-83
2024/04/01 10:43:01;;;;;;;10.32;1.20;;;;;;;-141.50;100.00;63355.56;4926605;29;20067;-86
2024/04/01 10:45:42;;;;;;;7.30;1.27;;;;;;;-141.50;100.00;63355.56;4918633;29;20048;-83
2024/04/01 10:48:20;;;;;;;8.63;0.90;;;;;;;-141.50;100.00;63355.56;4917893;29;20457;-84
2024/04/01 10:51:36;;;;;;;3.42;0.90;;;;;;;-141.50;100.00;63355.56;4910903;29;20060;-86
2024/04/01 10:54:06;;;;;;;7.57;1.00;;;;;;;-141.50;100.00;63355.56;4914256;29;20087;-84
2024/04/01 10:57:00;;;;;;;5.15;1.00;;;;;;;-141.50;100.00;63355.56;4914329;29;20078;-85
2024/04/01 10:59:43;;;;;;;6.53;0.90;;;;;;;-141.50;100.00;63355.56;4916214;29;20593;-83
2024/04/01 11:02:18;;;;;;;6.38;0.90;;;;;;;-141.50;100.00;63355.56;4918104;29;20138;-82
2024/04/01 11:05:05;;;;;;;8.63;1.20;;;;;;;-141.50;100.00;63355.56;4919746;29;20683;-83
2024/04/01 11:07:40;;;;;;;6.63;1.10;;;;;;;-141.50;100.00;63355.56;4916707;29;20302;-82
2024/04/01 11:10:32;;;;;;;13.27;1.30;;;;;;;-141.50;100.00;63355.56;4927773;29;20161;-82
2024/04/01 11:13:09;;;;;;;14.05;1.10;;;;;;;-141.50;100.00;63355.56;4914258;29;20064;-84